Time;durP1;ratioP1;P1;durP2;ratioP2;P2;SDS_P1;SDS_P2;PMS_P1;PMS_P2;Temp;Humidity;BMP_temperature;BMP_pressure;BME280_temperature;BME280_humidity;BME280_pressure;Samples;Min_cycle;Max_cycle;Signal;HPM_P1;HPM_P2
2020/12/06 00:00:24;;;;;;;23.73;16.93;;;;;;;;;;5049279;28;20476;-78
2020/12/06 00:02:52;;;;;;;21.63;16.85;;;;;;;;;;5049582;28;20796;-77
2020/12/06 00:05:21;;;;;;;22.80;17.15;;;;;;;;;;5049747;28;20416;-78
2020/12/06 00:07:47;;;;;;;20.92;16.23;;;;;;;;;;5049513;28;20427;-78
2020/12/06 00:10:17;;;;;;;19.63;15.70;;;;;;;;;;5049413;28;20465;-78
2020/12/06 00:12:43;;;;;;;22.95;16.55;;;;;;;;;;5049305;28;20737;-79
2020/12/06 00:15:10;;;;;;;22.92;17.08;;;;;;;;;;5049401;28;20396;-79
2020/12/06 00:17:36;;;;;;;22.75;16.75;;;;;;;;;;5049125;28;20477;-79
2020/12/06 00:20:03;;;;;;;22.98;17.67;;;;;;;;;;5062800;28;20413;-79
2020/12/06 00:22:29;;;;;;;22.98;17.90;;;;;;;;;;5048852;28;20411;-79
2020/12/06 00:24:55;;;;;;;23.02;17.30;;;;;;;;;;5048237;28;20540;-79
2020/12/06 00:27:21;;;;;;;23.17;17.98;;;;;;;;;;5050337;28;20416;-78
2020/12/06 00:29:46;;;;;;;25.05;17.80;;;;;;;;;;5050518;28;20442;-79
2020/12/06 00:32:12;;;;;;;24.10;16.93;;;;;;;;;;5050931;28;20420;-79
2020/12/06 00:34:38;;;;;;;21.38;17.25;;;;;;;;;;5050388;28;20401;-78
2020/12/06 00:37:05;;;;;;;21.88;17.40;;;;;;;;;;5049039;28;20398;-80
2020/12/06 00:39:31;;;;;;;22.77;17.13;;;;;;;;;;5048034;28;20393;-78
2020/12/06 00:41:57;;;;;;;24.83;17.17;;;;;;;;;;5046217;28;20462;-79
2020/12/06 00:44:23;;;;;;;21.98;16.90;;;;;;;;;;5050093;28;20413;-80
2020/12/06 00:46:49;;;;;;;22.57;17.03;;;;;;;;;;5044721;28;20740;-79
2020/12/06 00:49:14;;;;;;;23.20;17.35;;;;;;;;;;5046727;28;20855;-80
2020/12/06 00:51:40;;;;;;;21.38;17.15;;;;;;;;;;5044626;28;20401;-79
2020/12/06 00:54:06;;;;;;;24.30;17.25;;;;;;;;;;5050406;28;20492;-79
2020/12/06 00:56:32;;;;;;;23.08;17.08;;;;;;;;;;5049544;28;20434;-79
2020/12/06 00:58:58;;;;;;;22.35;17.38;;;;;;;;;;5045009;28;20738;-79
2020/12/06 01:01:24;;;;;;;24.80;18.02;;;;;;;;;;5045636;28;20710;-79
2020/12/06 01:03:50;;;;;;;22.10;17.03;;;;;;;;;;5046364;28;20942;-80
2020/12/06 01:06:17;;;;;;;23.08;17.77;;;;;;;;;;5049835;28;20409;-79
2020/12/06 01:08:43;;;;;;;21.90;17.25;;;;;;;;;;5043869;28;20421;-79
2020/12/06 01:11:13;;;;;;;22.98;17.58;;;;;;;;;;5042429;28;20384;-79
2020/12/06 01:13:39;;;;;;;22.73;18.00;;;;;;;;;;5040870;28;20406;-78
2020/12/06 01:16:05;;;;;;;24.35;18.42;;;;;;;;;;5039197;28;20451;-79
2020/12/06 01:18:30;;;;;;;25.67;18.35;;;;;;;;;;5048496;28;20403;-80
2020/12/06 01:20:56;;;;;;;25.20;18.40;;;;;;;;;;5047602;28;20398;-79
2020/12/06 01:23:22;;;;;;;24.80;18.92;;;;;;;;;;5047378;28;20398;-79
2020/12/06 01:25:49;;;;;;;23.52;18.05;;;;;;;;;;5047900;28;20412;-79
2020/12/06 01:28:15;;;;;;;21.50;17.75;;;;;;;;;;5046072;28;20747;-79
2020/12/06 01:30:41;;;;;;;24.55;18.30;;;;;;;;;;5048876;28;20401;-79
2020/12/06 01:33:07;;;;;;;23.98;18.30;;;;;;;;;;5040034;28;20398;-79
2020/12/06 01:35:33;;;;;;;23.75;18.13;;;;;;;;;;5041925;28;20476;-80
2020/12/06 01:38:00;;;;;;;24.10;17.27;;;;;;;;;;5051465;28;20432;-79
2020/12/06 01:40:26;;;;;;;23.38;18.25;;;;;;;;;;5044476;28;20397;-80
2020/12/06 01:42:52;;;;;;;27.40;18.58;;;;;;;;;;5051211;28;20436;-80
2020/12/06 01:45:18;;;;;;;23.67;18.48;;;;;;;;;;5050148;28;20429;-79
2020/12/06 01:47:44;;;;;;;24.10;18.10;;;;;;;;;;5048997;28;20425;-79
2020/12/06 01:50:12;;;;;;;24.33;19.00;;;;;;;;;;5050891;28;20861;-79
2020/12/06 01:52:38;;;;;;;23.40;18.27;;;;;;;;;;5045653;28;20386;-78
2020/12/06 01:55:05;;;;;;;23.15;18.92;;;;;;;;;;5048378;28;20480;-78
2020/12/06 01:57:31;;;;;;;23.00;18.38;;;;;;;;;;5049516;28;20396;-79
2020/12/06 01:59:57;;;;;;;24.55;18.70;;;;;;;;;;5048750;28;21091;-79
2020/12/06 02:02:23;;;;;;;24.45;19.38;;;;;;;;;;5050432;28;20390;-79
2020/12/06 02:04:52;;;;;;;24.20;18.98;;;;;;;;;;5050223;28;20393;-79
2020/12/06 02:07:18;;;;;;;23.77;18.50;;;;;;;;;;5049484;28;20457;-78
2020/12/06 02:09:44;;;;;;;23.83;18.95;;;;;;;;;;5049415;28;20877;-78
2020/12/06 02:12:10;;;;;;;24.77;18.60;;;;;;;;;;5050348;28;20390;-78
2020/12/06 02:14:36;;;;;;;24.33;18.23;;;;;;;;;;5031111;28;20415;-78
2020/12/06 02:17:03;;;;;;;23.52;18.30;;;;;;;;;;5036064;28;20420;-78
2020/12/06 02:19:29;;;;;;;24.95;19.10;;;;;;;;;;5050152;28;20451;-79
2020/12/06 02:21:54;;;;;;;22.25;17.90;;;;;;;;;;5036736;28;20393;-78
2020/12/06 02:24:21;;;;;;;23.20;18.20;;;;;;;;;;5050393;28;20436;-79
2020/12/06 02:26:51;;;;;;;22.58;18.15;;;;;;;;;;5050432;28;20876;-80
2020/12/06 02:29:17;;;;;;;22.95;18.58;;;;;;;;;;5050399;28;20534;-78
2020/12/06 02:31:44;;;;;;;25.60;19.30;;;;;;;;;;5046098;28;20401;-79
2020/12/06 02:34:10;;;;;;;24.63;19.57;;;;;;;;;;5046692;28;20382;-79
2020/12/06 02:36:37;;;;;;;25.23;19.33;;;;;;;;;;5036707;28;20788;-80
2020/12/06 02:39:04;;;;;;;23.33;18.80;;;;;;;;;;5047796;28;20404;-79
2020/12/06 02:41:34;;;;;;;26.45;19.65;;;;;;;;;;5046417;28;20451;-78
2020/12/06 02:44:00;;;;;;;24.02;19.77;;;;;;;;;;5038391;28;20423;-78
2020/12/06 02:46:26;;;;;;;21.60;18.27;;;;;;;;;;5041645;28;20423;-79
2020/12/06 02:48:52;;;;;;;21.25;17.67;;;;;;;;;;5042724;28;20535;-78
2020/12/06 02:51:18;;;;;;;24.85;20.40;;;;;;;;;;5039894;28;20386;-78
2020/12/06 02:53:44;;;;;;;25.08;20.88;;;;;;;;;;5048038;28;20749;-79
2020/12/06 02:56:10;;;;;;;25.70;20.17;;;;;;;;;;5046207;28;20951;-79
2020/12/06 02:58:36;;;;;;;32.80;19.57;;;;;;;;;;5045926;28;20962;-78
2020/12/06 03:01:02;;;;;;;25.27;19.75;;;;;;;;;;5047851;28;20397;-78
2020/12/06 03:03:28;;;;;;;23.38;18.55;;;;;;;;;;5047533;28;20389;-79
2020/12/06 03:05:54;;;;;;;21.13;17.95;;;;;;;;;;5046444;28;21344;-78
2020/12/06 03:08:23;;;;;;;24.35;18.95;;;;;;;;;;5050119;28;20860;-78
2020/12/06 03:10:49;;;;;;;23.33;17.83;;;;;;;;;;5041521;28;20396;-77
2020/12/06 03:13:15;;;;;;;20.90;17.52;;;;;;;;;;5049901;28;20398;-79
2020/12/06 03:15:41;;;;;;;22.83;18.40;;;;;;;;;;5046778;28;20389;-78
2020/12/06 03:18:06;;;;;;;21.50;17.88;;;;;;;;;;5047800;28;20466;-78
2020/12/06 03:20:32;;;;;;;24.90;19.73;;;;;;;;;;5043925;28;20742;-78
2020/12/06 03:22:59;;;;;;;23.33;19.08;;;;;;;;;;5047266;28;20842;-79
2020/12/06 03:25:25;;;;;;;24.98;19.30;;;;;;;;;;5041653;28;20744;-79
2020/12/06 03:27:51;;;;;;;24.00;18.48;;;;;;;;;;5041943;28;20395;-78
2020/12/06 03:30:17;;;;;;;23.70;19.60;;;;;;;;;;5043576;28;20402;-78
2020/12/06 03:32:43;;;;;;;24.90;20.10;;;;;;;;;;5039807;28;20791;-78
2020/12/06 03:35:09;;;;;;;24.25;19.80;;;;;;;;;;5036290;28;20428;-78
2020/12/06 03:37:36;;;;;;;23.38;19.05;;;;;;;;;;5044508;28;20393;-79
2020/12/06 03:40:01;;;;;;;23.30;19.42;;;;;;;;;;5039959;28;20478;-79
2020/12/06 03:42:27;;;;;;;24.05;20.13;;;;;;;;;;5047468;28;20484;-79
2020/12/06 03:44:53;;;;;;;25.30;20.17;;;;;;;;;;5040965;28;20416;-78
2020/12/06 03:47:19;;;;;;;25.92;20.67;;;;;;;;;;5045538;28;20397;-78
2020/12/06 03:49:45;;;;;;;25.50;21.00;;;;;;;;;;5043704;28;20429;-79
2020/12/06 03:52:11;;;;;;;26.63;21.27;;;;;;;;;;5037291;28;20398;-78
2020/12/06 03:54:37;;;;;;;25.55;20.95;;;;;;;;;;5042465;28;20462;-78
2020/12/06 03:57:03;;;;;;;28.63;21.77;;;;;;;;;;5040392;28;20387;-78
2020/12/06 03:59:29;;;;;;;25.73;21.52;;;;;;;;;;5044647;28;20393;-78
2020/12/06 04:01:55;;;;;;;27.25;21.50;;;;;;;;;;5047998;28;20413;-78
2020/12/06 04:04:21;;;;;;;27.05;21.77;;;;;;;;;;5031114;28;20466;-78
2020/12/06 04:06:47;;;;;;;27.00;21.75;;;;;;;;;;5036870;28;20383;-79
2020/12/06 04:09:13;;;;;;;25.00;19.77;;;;;;;;;;5045823;28;20396;-79
2020/12/06 04:11:39;;;;;;;25.00;19.88;;;;;;;;;;5049753;28;20382;-78
2020/12/06 04:14:05;;;;;;;25.50;20.53;;;;;;;;;;5049492;28;20420;-78
2020/12/06 04:16:31;;;;;;;25.65;21.23;;;;;;;;;;5044140;28;20404;-80
2020/12/06 04:18:57;;;;;;;25.65;21.35;;;;;;;;;;5044967;28;20394;-79
2020/12/06 04:21:23;;;;;;;26.38;21.05;;;;;;;;;;5040615;28;20439;-80
2020/12/06 04:23:49;;;;;;;24.80;21.02;;;;;;;;;;5038716;28;20428;-78
2020/12/06 04:26:15;;;;;;;26.20;21.60;;;;;;;;;;5045901;28;20808;-80
2020/12/06 04:28:41;;;;;;;28.85;23.90;;;;;;;;;;5049576;28;20436;-78
2020/12/06 04:31:07;;;;;;;26.90;22.55;;;;;;;;;;5052982;28;20905;-78
2020/12/06 04:33:33;;;;;;;28.83;23.38;;;;;;;;;;5051821;28;20396;-79
2020/12/06 04:35:59;;;;;;;29.17;22.90;;;;;;;;;;5049157;28;20492;-78
2020/12/06 04:38:25;;;;;;;28.85;23.83;;;;;;;;;;5052041;28;20400;-78
2020/12/06 04:40:51;;;;;;;28.05;23.27;;;;;;;;;;5048746;28;20444;-79
2020/12/06 04:43:18;;;;;;;29.30;23.60;;;;;;;;;;5049308;28;20421;-79
2020/12/06 04:45:44;;;;;;;30.95;23.75;;;;;;;;;;5042935;28;20467;-78
2020/12/06 04:48:10;;;;;;;27.48;22.70;;;;;;;;;;5053135;28;20885;-78
2020/12/06 04:50:37;;;;;;;29.63;23.60;;;;;;;;;;5052069;28;20393;-79
2020/12/06 04:53:06;;;;;;;30.85;23.73;;;;;;;;;;5042631;28;20409;-78
2020/12/06 04:55:35;;;;;;;30.83;24.00;;;;;;;;;;5050965;28;20488;-78
2020/12/06 04:58:04;;;;;;;29.23;23.17;;;;;;;;;;5052029;28;20458;-78
2020/12/06 05:00:35;;;;;;;28.25;23.00;;;;;;;;;;5045630;28;20901;-78
2020/12/06 05:03:11;;;;;;;30.48;23.15;;;;;;;;;;5049795;28;20840;-78
2020/12/06 05:05:40;;;;;;;30.57;23.77;;;;;;;;;;5065275;28;20482;-78
2020/12/06 05:08:06;;;;;;;31.70;24.52;;;;;;;;;;5049246;28;20392;-78
2020/12/06 05:10:37;;;;;;;28.58;23.30;;;;;;;;;;5041740;28;20381;-78
2020/12/06 05:13:03;;;;;;;30.00;23.45;;;;;;;;;;5049371;28;20398;-79
2020/12/06 05:15:29;;;;;;;33.08;24.00;;;;;;;;;;5041616;28;20468;-79
2020/12/06 05:17:56;;;;;;;32.67;23.50;;;;;;;;;;5040608;28;20404;-79
2020/12/06 05:20:22;;;;;;;30.10;23.83;;;;;;;;;;5038763;28;20391;-78
2020/12/06 05:22:48;;;;;;;30.23;23.45;;;;;;;;;;5048032;28;20748;-80
2020/12/06 05:25:14;;;;;;;29.20;23.40;;;;;;;;;;5064376;28;20496;-78
2020/12/06 05:27:41;;;;;;;30.93;24.00;;;;;;;;;;5062249;28;20753;-79
2020/12/06 05:30:07;;;;;;;31.73;24.13;;;;;;;;;;5049864;28;20714;-78
2020/12/06 05:32:36;;;;;;;31.17;23.75;;;;;;;;;;5043303;28;20911;-79
2020/12/06 05:35:03;;;;;;;29.35;23.90;;;;;;;;;;5044468;28;20417;-79
2020/12/06 05:37:30;;;;;;;30.13;24.02;;;;;;;;;;5046824;28;20389;-80
2020/12/06 05:40:03;;;;;;;33.63;25.67;;;;;;;;;;5044699;28;20389;-78
2020/12/06 05:42:30;;;;;;;32.22;25.17;;;;;;;;;;5042156;28;25118;-78
2020/12/06 05:44:57;;;;;;;33.80;25.55;;;;;;;;;;5048229;28;20416;-78
2020/12/06 05:47:23;;;;;;;34.33;25.67;;;;;;;;;;5048195;28;20417;-79
2020/12/06 05:49:49;;;;;;;34.65;26.38;;;;;;;;;;5045501;28;20409;-78
2020/12/06 05:52:18;;;;;;;33.80;26.15;;;;;;;;;;5041990;28;20416;-79
2020/12/06 05:54:44;;;;;;;33.80;25.50;;;;;;;;;;5047626;28;20502;-79
2020/12/06 05:57:11;;;;;;;34.95;27.50;;;;;;;;;;5047159;28;20413;-79
2020/12/06 05:59:38;;;;;;;35.28;26.63;;;;;;;;;;5044622;28;20391;-79
2020/12/06 06:02:04;;;;;;;35.67;27.33;;;;;;;;;;5041854;28;20403;-79
2020/12/06 06:04:32;;;;;;;35.85;26.95;;;;;;;;;;5038769;28;20753;-78
2020/12/06 06:07:01;;;;;;;33.33;25.55;;;;;;;;;;5063216;28;20485;-78
2020/12/06 06:09:28;;;;;;;33.92;25.50;;;;;;;;;;5047471;28;20425;-79
2020/12/06 06:12:13;;;;;;;34.30;24.85;;;;;;;;;;5043852;28;20399;-78
2020/12/06 06:14:39;;;;;;;31.40;23.75;;;;;;;;;;5041454;28;20419;-78
2020/12/06 06:17:06;;;;;;;28.08;23.20;;;;;;;;;;5037613;28;20395;-79
2020/12/06 06:19:32;;;;;;;31.02;23.90;;;;;;;;;;5044064;28;20405;-79
2020/12/06 06:22:00;;;;;;;32.17;24.45;;;;;;;;;;5040314;28;20424;-79
2020/12/06 06:24:26;;;;;;;31.90;24.50;;;;;;;;;;5047183;28;20462;-78
2020/12/06 06:26:55;;;;;;;34.00;25.95;;;;;;;;;;5044341;28;20408;-78
2020/12/06 06:29:21;;;;;;;32.53;25.88;;;;;;;;;;5046097;28;20447;-78
2020/12/06 06:31:52;;;;;;;35.15;27.27;;;;;;;;;;5058675;28;20393;-79
2020/12/06 06:34:18;;;;;;;33.75;25.38;;;;;;;;;;5046340;28;20417;-78
2020/12/06 06:36:45;;;;;;;34.42;26.48;;;;;;;;;;5048221;28;20809;-78
2020/12/06 06:39:17;;;;;;;33.92;26.73;;;;;;;;;;5042701;28;20444;-79
2020/12/06 06:41:44;;;;;;;34.88;26.33;;;;;;;;;;5044928;28;20392;-79
2020/12/06 06:44:10;;;;;;;35.00;26.42;;;;;;;;;;5046749;28;20385;-79
2020/12/06 06:46:36;;;;;;;36.92;26.30;;;;;;;;;;5044739;28;20412;-78
2020/12/06 06:49:12;;;;;;;34.53;26.73;;;;;;;;;;5057806;28;20803;-80
2020/12/06 06:51:38;;;;;;;36.88;28.02;;;;;;;;;;5044460;28;20797;-78
2020/12/06 06:54:09;;;;;;;33.97;26.50;;;;;;;;;;5047678;28;20400;-78
2020/12/06 06:56:48;;;;;;;35.05;26.73;;;;;;;;;;5046202;28;20506;-78
2020/12/06 06:59:14;;;;;;;36.03;25.38;;;;;;;;;;5043584;28;20864;-79
2020/12/06 07:01:49;;;;;;;35.63;25.92;;;;;;;;;;5042530;28;20601;-78
2020/12/06 07:04:19;;;;;;;34.55;25.90;;;;;;;;;;5047976;28;20439;-79
2020/12/06 07:06:51;;;;;;;33.88;26.52;;;;;;;;;;5045900;28;20400;-79
2020/12/06 07:09:26;;;;;;;35.50;26.85;;;;;;;;;;5039345;28;20411;-78
2020/12/06 07:11:56;;;;;;;33.40;26.13;;;;;;;;;;5044725;28;20393;-79
2020/12/06 07:14:26;;;;;;;42.97;30.10;;;;;;;;;;5036397;28;20385;-79
2020/12/06 07:16:56;;;;;;;36.53;28.45;;;;;;;;;;5045347;28;20447;-79
2020/12/06 07:19:23;;;;;;;35.67;28.02;;;;;;;;;;5060984;28;20376;-78
2020/12/06 07:21:50;;;;;;;38.55;27.85;;;;;;;;;;5037410;28;20391;-79
2020/12/06 07:24:16;;;;;;;38.67;29.80;;;;;;;;;;5047030;28;21101;-78
2020/12/06 07:26:43;;;;;;;36.72;28.08;;;;;;;;;;5047426;28;20415;-80
2020/12/06 07:29:09;;;;;;;38.72;29.77;;;;;;;;;;5045154;28;20385;-78
2020/12/06 07:31:35;;;;;;;39.03;29.43;;;;;;;;;;5044844;28;20381;-78
2020/12/06 07:34:01;;;;;;;36.40;27.38;;;;;;;;;;5046733;28;20397;-79
2020/12/06 07:36:37;;;;;;;34.97;27.33;;;;;;;;;;5046204;28;20401;-78
2020/12/06 07:39:13;;;;;;;36.38;27.98;;;;;;;;;;5041021;28;20408;-79
2020/12/06 07:41:50;;;;;;;36.17;27.77;;;;;;;;;;5057011;28;20443;-78
2020/12/06 07:44:16;;;;;;;38.38;28.30;;;;;;;;;;5050805;28;20397;-78
2020/12/06 07:46:42;;;;;;;34.72;26.52;;;;;;;;;;5065635;28;20453;-78
2020/12/06 07:49:08;;;;;;;38.20;28.02;;;;;;;;;;5048641;28;20394;-78
2020/12/06 07:51:34;;;;;;;36.17;27.15;;;;;;;;;;5038737;28;20398;-78
2020/12/06 07:54:02;;;;;;;39.22;29.38;;;;;;;;;;5045963;28;20757;-79
2020/12/06 07:56:29;;;;;;;41.67;29.40;;;;;;;;;;5033550;28;20393;-78
2020/12/06 07:58:55;;;;;;;40.22;29.67;;;;;;;;;;5066343;28;20873;-78
2020/12/06 08:01:21;;;;;;;35.80;27.88;;;;;;;;;;5045936;28;20406;-78
2020/12/06 08:03:49;;;;;;;36.03;27.92;;;;;;;;;;5036396;28;20421;-78
2020/12/06 08:06:16;;;;;;;37.45;28.10;;;;;;;;;;5045547;28;20439;-78
2020/12/06 08:08:45;;;;;;;35.97;26.45;;;;;;;;;;5052119;28;20421;-78
2020/12/06 08:11:11;;;;;;;37.78;28.73;;;;;;;;;;5050022;28;20418;-78
2020/12/06 08:13:37;;;;;;;37.20;28.17;;;;;;;;;;5050408;28;20873;-79
2020/12/06 08:16:07;;;;;;;36.47;27.70;;;;;;;;;;5049673;28;20433;-79
2020/12/06 08:18:33;;;;;;;36.15;26.98;;;;;;;;;;5061282;28;20391;-79
2020/12/06 08:20:59;;;;;;;36.10;26.42;;;;;;;;;;5048657;28;20419;-78
2020/12/06 08:23:32;;;;;;;36.88;28.38;;;;;;;;;;5045069;28;20398;-79
2020/12/06 08:25:58;;;;;;;35.38;26.83;;;;;;;;;;5042983;28;20476;-78
2020/12/06 08:28:24;;;;;;;38.72;27.65;;;;;;;;;;5044954;28;20481;-79
2020/12/06 08:30:50;;;;;;;36.55;27.55;;;;;;;;;;5045259;28;20480;-79
2020/12/06 08:33:22;;;;;;;38.08;29.27;;;;;;;;;;5066001;28;20924;-78
2020/12/06 08:35:51;;;;;;;37.30;28.70;;;;;;;;;;5044142;28;20411;-78
2020/12/06 08:38:18;;;;;;;33.58;26.15;;;;;;;;;;5039391;28;20904;-79
2020/12/06 08:41:03;;;;;;;34.27;26.07;;;;;;;;;;5040680;28;20399;-83
2020/12/06 08:43:41;;;;;;;34.40;26.27;;;;;;;;;;5053441;28;20387;-79
2020/12/06 08:46:08;;;;;;;33.42;25.67;;;;;;;;;;5043481;28;20414;-80
2020/12/06 08:48:34;;;;;;;33.33;26.00;;;;;;;;;;5048589;28;20394;-79
2020/12/06 08:51:00;;;;;;;38.33;28.00;;;;;;;;;;5046292;28;20397;-79
2020/12/06 08:53:26;;;;;;;34.97;26.60;;;;;;;;;;5048639;28;20398;-79
2020/12/06 08:55:52;;;;;;;31.83;25.83;;;;;;;;;;5043753;28;20486;-79
2020/12/06 08:58:28;;;;;;;34.60;27.35;;;;;;;;;;5044594;28;20401;-79
2020/12/06 09:00:54;;;;;;;34.88;26.75;;;;;;;;;;5045172;28;20402;-79
2020/12/06 09:03:20;;;;;;;34.08;26.40;;;;;;;;;;5047176;28;20389;-79
2020/12/06 09:05:46;;;;;;;35.67;26.05;;;;;;;;;;5051872;28;20939;-80
2020/12/06 09:08:12;;;;;;;34.50;25.88;;;;;;;;;;5053239;28;20425;-80
2020/12/06 09:10:44;;;;;;;34.58;26.50;;;;;;;;;;5046551;28;20423;-79
2020/12/06 09:13:10;;;;;;;34.33;26.00;;;;;;;;;;5051050;28;20819;-80
2020/12/06 09:15:36;;;;;;;38.33;27.57;;;;;;;;;;5053021;28;20519;-79
2020/12/06 09:18:02;;;;;;;34.47;25.80;;;;;;;;;;5051562;28;20402;-79
2020/12/06 09:20:28;;;;;;;33.47;25.35;;;;;;;;;;5051258;28;20456;-80
2020/12/06 09:22:54;;;;;;;35.47;26.60;;;;;;;;;;5052859;28;20401;-80
2020/12/06 09:25:20;;;;;;;32.92;25.95;;;;;;;;;;5050412;28;20409;-80
2020/12/06 09:27:46;;;;;;;32.30;24.55;;;;;;;;;;5049366;28;20405;-79
2020/12/06 09:30:15;;;;;;;32.88;25.90;;;;;;;;;;5051221;28;20397;-80
2020/12/06 09:32:41;;;;;;;34.53;25.90;;;;;;;;;;5049133;28;20552;-80
2020/12/06 09:35:07;;;;;;;38.47;28.45;;;;;;;;;;5049335;28;20434;-81
2020/12/06 09:37:33;;;;;;;34.72;27.13;;;;;;;;;;5049955;28;20439;-78
2020/12/06 09:40:02;;;;;;;37.72;29.15;;;;;;;;;;5050688;28;20413;-80
2020/12/06 09:42:28;;;;;;;39.50;29.50;;;;;;;;;;5049828;28;20387;-80
2020/12/06 09:44:54;;;;;;;36.47;26.67;;;;;;;;;;5045417;28;20411;-80
2020/12/06 09:47:20;;;;;;;37.15;28.25;;;;;;;;;;5040002;28;20405;-80
2020/12/06 09:49:46;;;;;;;36.92;27.42;;;;;;;;;;5049536;28;20852;-79
2020/12/06 09:52:12;;;;;;;36.65;28.05;;;;;;;;;;5042431;28;20395;-79
2020/12/06 09:54:38;;;;;;;34.35;27.70;;;;;;;;;;5045117;28;20410;-78
2020/12/06 09:57:16;;;;;;;35.75;26.90;;;;;;;;;;5043826;28;20387;-81
2020/12/06 09:59:49;;;;;;;39.95;29.88;;;;;;;;;;5050815;28;20389;-79
2020/12/06 10:02:15;;;;;;;35.90;27.88;;;;;;;;;;5038186;28;20402;-78
2020/12/06 10:04:41;;;;;;;39.65;30.17;;;;;;;;;;5064650;28;20390;-78
2020/12/06 10:07:07;;;;;;;37.47;28.38;;;;;;;;;;5046962;28;20436;-78
2020/12/06 10:09:36;;;;;;;37.47;28.38;;;;;;;;;;5051073;28;20386;-81
2020/12/06 10:12:01;;;;;;;38.10;27.85;;;;;;;;;;5044264;28;20386;-78
2020/12/06 10:14:27;;;;;;;36.35;27.80;;;;;;;;;;5042864;28;20395;-78
2020/12/06 10:16:53;;;;;;;36.72;28.08;;;;;;;;;;5037823;28;20489;-78
2020/12/06 10:19:19;;;;;;;37.78;28.27;;;;;;;;;;5041231;28;20441;-78
2020/12/06 10:21:45;;;;;;;36.60;28.37;;;;;;;;;;5044435;28;20475;-78
2020/12/06 10:24:11;;;;;;;37.42;28.73;;;;;;;;;;5045287;28;20454;-78
2020/12/06 10:26:37;;;;;;;39.00;29.90;;;;;;;;;;5050230;28;20401;-78
2020/12/06 10:29:03;;;;;;;36.90;28.48;;;;;;;;;;5047703;28;20428;-78
2020/12/06 10:31:29;;;;;;;37.75;29.25;;;;;;;;;;5047907;28;20404;-79
2020/12/06 10:33:55;;;;;;;36.28;28.30;;;;;;;;;;5042163;28;20820;-79
2020/12/06 10:36:21;;;;;;;37.10;27.92;;;;;;;;;;5040414;28;20399;-79
2020/12/06 10:38:47;;;;;;;36.13;28.40;;;;;;;;;;5039535;28;20414;-81
2020/12/06 10:41:13;;;;;;;37.20;28.50;;;;;;;;;;5047789;28;20401;-79
2020/12/06 10:43:39;;;;;;;41.27;30.53;;;;;;;;;;5034482;28;20399;-79
2020/12/06 10:46:05;;;;;;;39.80;30.88;;;;;;;;;;5040545;28;20407;-79
2020/12/06 10:48:31;;;;;;;40.20;30.85;;;;;;;;;;5046701;28;20393;-79
2020/12/06 10:50:57;;;;;;;39.15;29.85;;;;;;;;;;5044138;28;20896;-79
2020/12/06 10:53:23;;;;;;;37.53;29.40;;;;;;;;;;5041691;28;20762;-79
2020/12/06 10:55:49;;;;;;;37.67;29.73;;;;;;;;;;5051152;28;20397;-79
2020/12/06 10:58:15;;;;;;;37.95;28.92;;;;;;;;;;5049437;28;20427;-79
2020/12/06 11:00:41;;;;;;;39.47;29.50;;;;;;;;;;5049489;28;20389;-79
2020/12/06 11:03:07;;;;;;;36.63;28.77;;;;;;;;;;5049810;28;20468;-79
2020/12/06 11:05:33;;;;;;;36.63;28.80;;;;;;;;;;5041615;28;20413;-79
2020/12/06 11:07:59;;;;;;;37.13;28.77;;;;;;;;;;5045606;28;20398;-79
2020/12/06 11:10:24;;;;;;;35.88;28.50;;;;;;;;;;5047158;28;20398;-79
2020/12/06 11:12:50;;;;;;;37.10;29.08;;;;;;;;;;5050201;28;20877;-79
2020/12/06 11:15:16;;;;;;;39.55;30.30;;;;;;;;;;5049765;28;20389;-79
2020/12/06 11:17:42;;;;;;;40.47;28.35;;;;;;;;;;5044574;28;20762;-79
2020/12/06 11:20:08;;;;;;;36.53;28.57;;;;;;;;;;5048317;28;20799;-79
2020/12/06 11:22:34;;;;;;;36.42;29.05;;;;;;;;;;5044099;28;20395;-79
2020/12/06 11:25:00;;;;;;;39.47;30.13;;;;;;;;;;5049760;28;20463;-80
2020/12/06 11:27:26;;;;;;;35.53;27.83;;;;;;;;;;5049294;28;20861;-79
2020/12/06 11:29:53;;;;;;;35.28;27.20;;;;;;;;;;5049283;28;21414;-79
2020/12/06 11:32:22;;;;;;;35.78;27.70;;;;;;;;;;5040820;28;21253;-78
2020/12/06 11:34:48;;;;;;;38.88;29.55;;;;;;;;;;5045294;28;20765;-79
2020/12/06 11:37:14;;;;;;;34.95;27.77;;;;;;;;;;5050995;28;20396;-78
2020/12/06 11:39:40;;;;;;;35.55;27.80;;;;;;;;;;5046959;28;20399;-79
2020/12/06 11:42:06;;;;;;;35.70;27.73;;;;;;;;;;5054972;28;20397;-79
2020/12/06 11:44:32;;;;;;;36.08;28.73;;;;;;;;;;5044207;28;20684;-79
2020/12/06 11:46:58;;;;;;;37.08;28.00;;;;;;;;;;5045254;28;20429;-80
2020/12/06 11:49:24;;;;;;;36.65;29.63;;;;;;;;;;5052143;28;20395;-80
2020/12/06 11:51:50;;;;;;;37.42;29.05;;;;;;;;;;5048867;28;20439;-79
2020/12/06 11:54:17;;;;;;;38.47;29.23;;;;;;;;;;5049031;28;20948;-80
2020/12/06 11:56:46;;;;;;;37.50;28.08;;;;;;;;;;5051982;28;20382;-79
2020/12/06 11:59:12;;;;;;;36.80;28.52;;;;;;;;;;5042298;28;20483;-80
2020/12/06 12:01:38;;;;;;;39.05;28.98;;;;;;;;;;5049809;28;20473;-79
2020/12/06 12:04:07;;;;;;;35.78;28.58;;;;;;;;;;5052629;28;20737;-79
2020/12/06 12:06:33;;;;;;;36.70;28.10;;;;;;;;;;5052400;28;20414;-79
2020/12/06 12:08:58;;;;;;;36.33;27.95;;;;;;;;;;5051225;28;20460;-78
2020/12/06 12:11:24;;;;;;;37.42;29.50;;;;;;;;;;5051632;28;20401;-81
2020/12/06 12:13:50;;;;;;;35.25;27.65;;;;;;;;;;5052799;28;20401;-80
2020/12/06 12:16:16;;;;;;;38.00;28.98;;;;;;;;;;5052818;28;20434;-79
2020/12/06 12:18:43;;;;;;;41.67;29.77;;;;;;;;;;5052607;28;20454;-79
2020/12/06 12:21:09;;;;;;;37.28;29.27;;;;;;;;;;5051062;28;20448;-79
2020/12/06 12:23:35;;;;;;;38.05;29.52;;;;;;;;;;5050243;28;20405;-79
2020/12/06 12:26:01;;;;;;;36.58;29.85;;;;;;;;;;5053934;28;20420;-79
2020/12/06 12:28:27;;;;;;;40.37;30.67;;;;;;;;;;5052780;28;20416;-79
2020/12/06 12:30:53;;;;;;;38.90;28.95;;;;;;;;;;5053002;28;20750;-80
2020/12/06 12:33:19;;;;;;;35.67;28.42;;;;;;;;;;5046947;28;20856;-79
2020/12/06 12:35:45;;;;;;;37.30;29.33;;;;;;;;;;5052980;28;20388;-79
2020/12/06 12:38:11;;;;;;;38.55;28.92;;;;;;;;;;5053321;28;20485;-79
2020/12/06 12:40:37;;;;;;;37.42;29.23;;;;;;;;;;5038792;28;21030;-80
2020/12/06 12:43:03;;;;;;;35.28;27.73;;;;;;;;;;5052658;28;20472;-80
2020/12/06 12:45:29;;;;;;;35.30;29.17;;;;;;;;;;5050987;28;20462;-79
2020/12/06 12:47:56;;;;;;;36.90;28.85;;;;;;;;;;5046196;28;20489;-80
2020/12/06 12:50:22;;;;;;;35.28;28.15;;;;;;;;;;5050569;28;20394;-80
2020/12/06 12:52:49;;;;;;;37.65;29.33;;;;;;;;;;5045891;28;20404;-80
2020/12/06 12:55:15;;;;;;;37.92;28.95;;;;;;;;;;5047544;28;20388;-80
2020/12/06 12:57:42;;;;;;;40.05;29.65;;;;;;;;;;5053937;28;20386;-80
2020/12/06 13:00:08;;;;;;;38.10;28.92;;;;;;;;;;5051912;28;20448;-80
2020/12/06 13:02:34;;;;;;;37.33;29.73;;;;;;;;;;5051903;28;20390;-80
2020/12/06 13:05:00;;;;;;;38.25;29.42;;;;;;;;;;5052305;28;20515;-79
2020/12/06 13:07:27;;;;;;;36.13;29.02;;;;;;;;;;5051121;28;20382;-80
2020/12/06 13:09:53;;;;;;;40.47;30.60;;;;;;;;;;5052174;28;20386;-81
2020/12/06 13:12:19;;;;;;;38.90;30.80;;;;;;;;;;5053002;28;20386;-80
2020/12/06 13:14:47;;;;;;;36.33;29.07;;;;;;;;;;5054096;28;20396;-79
2020/12/06 13:17:14;;;;;;;36.67;29.25;;;;;;;;;;5053542;28;20388;-80
2020/12/06 13:19:40;;;;;;;38.35;30.73;;;;;;;;;;5042153;28;20383;-79
2020/12/06 13:22:07;;;;;;;40.60;29.63;;;;;;;;;;5047149;28;20429;-80
2020/12/06 13:24:33;;;;;;;42.33;31.60;;;;;;;;;;5049507;28;20459;-79
2020/12/06 13:26:59;;;;;;;39.63;31.15;;;;;;;;;;5048879;28;21128;-80
2020/12/06 13:29:25;;;;;;;41.65;32.05;;;;;;;;;;5052238;28;20435;-80
2020/12/06 13:31:57;;;;;;;39.10;30.75;;;;;;;;;;5050783;28;20390;-80
2020/12/06 13:34:23;;;;;;;41.60;31.27;;;;;;;;;;5049722;28;20460;-79
2020/12/06 13:36:52;;;;;;;39.22;31.05;;;;;;;;;;5052593;28;20382;-79
2020/12/06 13:39:18;;;;;;;39.83;29.90;;;;;;;;;;5046646;28;20383;-79
2020/12/06 13:41:44;;;;;;;38.53;29.45;;;;;;;;;;5050468;28;20397;-79
2020/12/06 13:44:10;;;;;;;42.50;30.40;;;;;;;;;;5052712;28;20431;-78
2020/12/06 13:46:36;;;;;;;38.97;30.83;;;;;;;;;;5051538;28;20420;-78
2020/12/06 13:49:02;;;;;;;40.78;30.38;;;;;;;;;;5050809;28;20381;-79
2020/12/06 13:51:28;;;;;;;42.25;31.17;;;;;;;;;;5050226;28;20885;-79
2020/12/06 13:53:54;;;;;;;37.95;30.83;;;;;;;;;;5049223;28;20434;-79
2020/12/06 13:56:20;;;;;;;43.53;32.80;;;;;;;;;;5050186;28;20394;-79
2020/12/06 13:58:46;;;;;;;41.88;31.95;;;;;;;;;;5048727;28;20396;-79
2020/12/06 14:01:18;;;;;;;42.08;31.85;;;;;;;;;;5051253;28;20393;-79
2020/12/06 14:03:44;;;;;;;41.60;30.98;;;;;;;;;;5051093;28;21068;-79
2020/12/06 14:06:13;;;;;;;40.77;30.63;;;;;;;;;;5042269;28;20484;-79
2020/12/06 14:08:40;;;;;;;43.45;32.75;;;;;;;;;;5050758;28;20463;-78
2020/12/06 14:11:06;;;;;;;39.95;31.17;;;;;;;;;;5044730;28;20385;-79
2020/12/06 14:13:32;;;;;;;45.17;35.38;;;;;;;;;;5051183;28;21031;-79